Terminal Aerodrome Forecast
Issued by NWS

Home | Current Version | Previous Version | Text Only | Print | Product List | Glossary On
Versions: 1 2 3 4 5 6 7 8 9 10 11 12
000
FTUS45 KREV 240538
TAFMMH
TAF
KMMH 240538Z 2406/2506 VRB03KT P6SM BKN180
     FM241800 19010G18KT P6SM BKN180 WS020/22040KT
     FM242100 21025G45KT P6SM SCT080 BKN150 WS020/22050KT=

USA.gov is the U.S. government's official web portal to all federal, state and local government web resources and services.